createdAt,value
2018-12-22T00:01:59.906Z,4.12
2018-12-22T00:04:33.466Z,4.80
2018-12-22T00:07:06.992Z,3.40
2018-12-22T00:09:40.387Z,4.10
2018-12-22T00:12:14.617Z,3.47
2018-12-22T00:14:47.919Z,4.03
2018-12-22T00:17:21.413Z,4.53
2018-12-22T00:19:54.895Z,3.33
2018-12-22T00:22:28.515Z,4.42
2018-12-22T00:25:02.111Z,3.12
2018-12-22T00:27:35.690Z,3.12
2018-12-22T00:30:09.291Z,4.40
2018-12-22T00:32:42.998Z,3.27
2018-12-22T00:35:16.596Z,3.62
2018-12-22T00:37:49.890Z,4.15
2018-12-22T00:40:23.358Z,1.60
2018-12-22T00:42:56.846Z,3.37
2018-12-22T00:45:30.283Z,3.47
2018-12-22T00:48:03.809Z,5.15
2018-12-22T00:50:37.423Z,3.98
2018-12-22T00:53:10.917Z,4.35
2018-12-22T00:55:44.450Z,4.72
2018-12-22T00:58:17.774Z,5.67
2018-12-22T01:00:51.171Z,5.03
2018-12-22T01:03:24.568Z,7.08
2018-12-22T01:05:58.214Z,3.45
2018-12-22T01:08:31.541Z,4.62
2018-12-22T01:11:05.088Z,5.40
2018-12-22T01:13:38.674Z,7.50
2018-12-22T01:16:12.269Z,3.00
2018-12-22T01:18:45.792Z,4.15
2018-12-22T01:21:19.492Z,3.42
2018-12-22T01:23:52.802Z,4.58
2018-12-22T01:26:26.167Z,4.03
2018-12-22T01:28:59.654Z,7.55
2018-12-22T01:31:33.253Z,3.17
2018-12-22T01:34:06.797Z,3.62
2018-12-22T01:36:40.357Z,6.00
2018-12-22T01:39:13.998Z,6.12
2018-12-22T01:41:47.491Z,3.83
2018-12-22T01:44:20.994Z,5.35
2018-12-22T01:46:54.305Z,2.47
2018-12-22T01:49:27.755Z,4.72
2018-12-22T01:52:01.156Z,5.67
2018-12-22T01:54:34.696Z,5.85
2018-12-22T01:57:08.297Z,5.03
2018-12-22T01:59:41.665Z,2.37
2018-12-22T02:02:15.052Z,3.52
2018-12-22T02:04:48.575Z,3.80
2018-12-22T02:07:22.097Z,5.00
2018-12-22T02:09:55.466Z,6.12
2018-12-22T02:12:28.842Z,2.20
2018-12-22T02:15:02.488Z,3.87
2018-12-22T02:17:36.111Z,2.52
2018-12-22T02:20:09.742Z,8.10
2018-12-22T02:22:43.422Z,4.50
2018-12-22T02:25:16.960Z,5.42
2018-12-22T02:27:50.343Z,4.28
2018-12-22T02:30:23.774Z,6.92
2018-12-22T02:32:57.102Z,4.42
2018-12-22T02:35:30.498Z,3.72
2018-12-22T02:38:03.801Z,3.55
2018-12-22T02:40:37.087Z,4.12
2018-12-22T02:43:10.382Z,5.03
2018-12-22T02:45:43.878Z,7.62
2018-12-22T02:48:17.218Z,6.80
2018-12-22T02:50:50.874Z,7.30
2018-12-22T02:53:24.387Z,6.60
2018-12-22T02:55:57.691Z,7.58
2018-12-22T02:58:31.198Z,3.20
2018-12-22T03:01:04.799Z,6.60
2018-12-22T03:03:38.399Z,6.15
2018-12-22T03:06:11.837Z,3.67
2018-12-22T03:08:45.306Z,7.25
2018-12-22T03:11:18.786Z,5.97
2018-12-22T03:13:52.174Z,4.47
2018-12-22T03:16:25.534Z,7.47
2018-12-22T03:18:59.009Z,6.87
2018-12-22T03:21:32.526Z,3.72
2018-12-22T03:24:05.835Z,4.22
2018-12-22T03:26:40.678Z,5.17
2018-12-22T03:29:15.756Z,6.15
2018-12-22T03:31:49.427Z,7.45
2018-12-22T03:34:22.911Z,5.05
2018-12-22T03:36:56.537Z,7.62
2018-12-22T03:39:30.206Z,4.33
2018-12-22T03:42:03.803Z,4.70
2018-12-22T03:44:37.319Z,7.37
2018-12-22T03:47:10.887Z,6.53
2018-12-22T03:49:44.375Z,5.22
2018-12-22T03:52:18.071Z,7.58
2018-12-22T03:54:51.505Z,9.00
2018-12-22T03:57:25.010Z,6.85
2018-12-22T03:59:58.436Z,6.60
2018-12-22T04:02:31.691Z,7.90
2018-12-22T04:05:06.147Z,5.47
2018-12-22T04:07:39.455Z,4.37
2018-12-22T04:10:13.040Z,4.87
2018-12-22T04:12:46.381Z,6.37
2018-12-22T04:15:20.119Z,9.98
2018-12-22T04:17:53.562Z,6.60
2018-12-22T04:20:27.116Z,6.62
2018-12-22T04:23:00.526Z,5.55
2018-12-22T04:25:33.917Z,6.47
2018-12-22T04:28:07.429Z,4.78
2018-12-22T04:30:41.015Z,5.20
2018-12-22T04:33:14.489Z,5.42
2018-12-22T04:35:47.827Z,7.08
2018-12-22T04:38:21.411Z,7.10
2018-12-22T04:40:55.019Z,4.60
2018-12-22T04:43:28.615Z,4.45
2018-12-22T04:46:02.095Z,5.55
2018-12-22T04:48:35.477Z,7.83
2018-12-22T04:51:08.872Z,8.53
2018-12-22T04:53:42.361Z,7.15
2018-12-22T04:56:15.825Z,10.00
2018-12-22T04:58:49.528Z,6.37
2018-12-22T05:01:23.161Z,5.12
2018-12-22T05:03:56.629Z,6.12
2018-12-22T05:06:30.172Z,6.30
2018-12-22T05:09:05.778Z,2.87
2018-12-22T05:11:39.022Z,3.92
2018-12-22T05:14:12.468Z,3.00
2018-12-22T05:16:45.914Z,3.70
2018-12-22T05:19:19.465Z,3.12
2018-12-22T05:21:53.949Z,3.90
2018-12-22T05:24:27.465Z,3.05
2018-12-22T05:27:00.795Z,6.50
2018-12-22T05:29:34.241Z,6.87
2018-12-22T05:32:07.903Z,2.47
2018-12-22T05:34:41.405Z,2.92
2018-12-22T05:37:14.803Z,5.62
2018-12-22T05:39:48.105Z,4.45
2018-12-22T05:42:21.614Z,3.40
2018-12-22T05:44:56.875Z,3.83
2018-12-22T05:47:30.545Z,4.85
2018-12-22T05:50:04.870Z,3.08
2018-12-22T05:52:38.313Z,3.22
2018-12-22T05:55:11.733Z,4.90
2018-12-22T05:57:45.366Z,4.17
2018-12-22T06:00:18.946Z,3.52
2018-12-22T06:02:52.565Z,4.40
2018-12-22T06:05:26.046Z,4.97
2018-12-22T06:08:00.378Z,3.15
2018-12-22T06:10:33.809Z,4.40
2018-12-22T06:13:07.317Z,5.08
2018-12-22T06:15:40.881Z,2.95
2018-12-22T06:18:14.529Z,4.33
2018-12-22T06:20:47.969Z,6.40
2018-12-22T06:23:21.417Z,6.58
2018-12-22T06:25:54.748Z,7.03
2018-12-22T06:28:28.075Z,9.70
2018-12-22T06:31:01.657Z,8.83
2018-12-22T06:33:36.076Z,7.85
2018-12-22T06:36:09.412Z,9.08
2018-12-22T06:38:42.862Z,10.28
2018-12-22T06:41:16.461Z,12.03
2018-12-22T06:43:50.070Z,11.80
2018-12-22T06:46:23.553Z,8.55
2018-12-22T06:48:57.171Z,8.48
2018-12-22T06:51:30.687Z,11.03
2018-12-22T06:54:04.455Z,11.88
2018-12-22T06:56:38.097Z,12.15
2018-12-22T06:59:11.786Z,12.68
2018-12-22T07:01:45.203Z,14.75
2018-12-22T07:04:18.596Z,13.65
2018-12-22T07:06:52.082Z,13.03
2018-12-22T07:09:25.634Z,11.08
2018-12-22T07:11:59.062Z,11.65
2018-12-22T07:14:32.497Z,13.22
2018-12-22T07:17:06.091Z,13.98
2018-12-22T07:19:39.613Z,14.23
2018-12-22T07:22:13.021Z,13.25
2018-12-22T07:24:46.429Z,13.43
2018-12-22T07:27:19.970Z,13.40
2018-12-22T07:29:53.341Z,19.07
2018-12-22T07:32:26.999Z,13.58
2018-12-22T07:35:00.322Z,20.37
2018-12-22T07:37:33.867Z,17.77
2018-12-22T07:40:07.395Z,17.55
2018-12-22T07:42:40.899Z,18.98
2018-12-22T07:45:14.273Z,18.50
2018-12-22T07:47:47.838Z,16.10
2018-12-22T07:50:21.258Z,17.90
2018-12-22T07:52:54.834Z,18.23
2018-12-22T07:55:28.530Z,15.85
2018-12-22T07:58:02.026Z,17.82
2018-12-22T08:00:35.468Z,17.32
2018-12-22T08:03:08.840Z,17.15
2018-12-22T08:05:42.229Z,16.10
2018-12-22T08:08:15.797Z,17.48
2018-12-22T08:10:49.472Z,21.65
2018-12-22T08:13:23.101Z,16.82
2018-12-22T08:15:57.851Z,15.13
2018-12-22T08:18:31.371Z,21.48
2018-12-22T08:21:05.135Z,16.82
2018-12-22T08:23:38.775Z,15.10
2018-12-22T08:26:13.567Z,17.95
2018-12-22T08:28:47.269Z,16.77
2018-12-22T08:31:20.662Z,15.32
2018-12-22T08:33:54.274Z,14.83
2018-12-22T08:36:27.598Z,16.80
2018-12-22T08:39:01.182Z,17.80
2018-12-22T08:41:34.808Z,17.92
2018-12-22T08:44:08.356Z,14.45
2018-12-22T08:46:41.892Z,17.70
2018-12-22T08:49:15.601Z,13.90
2018-12-22T08:51:49.159Z,16.85
2018-12-22T08:54:22.656Z,15.45
2018-12-22T08:56:56.052Z,13.28
2018-12-22T08:59:29.603Z,18.20
2018-12-22T09:02:03.191Z,15.13
2018-12-22T09:04:36.548Z,14.45
2018-12-22T09:07:09.925Z,16.37
2018-12-22T09:09:43.340Z,17.02
2018-12-22T09:12:16.771Z,15.20
2018-12-22T09:14:50.198Z,14.20
2018-12-22T09:17:23.702Z,15.85
2018-12-22T09:19:57.147Z,16.75
2018-12-22T09:22:30.844Z,18.15
2018-12-22T09:25:05.652Z,14.95
2018-12-22T09:27:39.407Z,15.58
2018-12-22T09:30:13.130Z,15.45
2018-12-22T09:32:46.868Z,14.10
2018-12-22T09:35:21.492Z,16.02
2018-12-22T09:37:55.538Z,16.05
2018-12-22T09:40:28.944Z,14.90
2018-12-22T09:43:02.595Z,13.53
2018-12-22T09:45:36.239Z,15.08
2018-12-22T09:48:09.723Z,16.97
2018-12-22T09:50:43.058Z,20.27
2018-12-22T09:53:16.279Z,15.75
2018-12-22T09:55:49.894Z,17.02
2018-12-22T09:58:23.239Z,18.73
2018-12-22T10:00:56.541Z,14.95
2018-12-22T10:03:29.931Z,16.60
2018-12-22T10:06:03.331Z,14.13
2018-12-22T10:08:36.960Z,14.93
2018-12-22T10:11:10.483Z,16.02
2018-12-22T10:13:43.838Z,15.25
2018-12-22T10:16:17.249Z,15.93
2018-12-22T10:18:50.815Z,12.25
2018-12-22T10:21:24.258Z,14.13
2018-12-22T10:23:57.647Z,15.72
2018-12-22T10:26:31.230Z,17.75
2018-12-22T10:29:05.947Z,14.30
2018-12-22T10:31:39.198Z,15.35
2018-12-22T10:34:12.646Z,13.25
2018-12-22T10:36:46.091Z,20.52
2018-12-22T10:39:19.613Z,17.70
2018-12-22T10:41:53.037Z,13.18
2018-12-22T10:44:26.330Z,16.48
2018-12-22T10:46:59.862Z,15.00
2018-12-22T10:49:33.417Z,18.48
2018-12-22T10:52:07.119Z,15.60
2018-12-22T10:54:41.463Z,16.62
2018-12-22T10:57:14.918Z,14.95
2018-12-22T10:59:48.497Z,17.42
2018-12-22T11:02:23.723Z,16.60
2018-12-22T11:04:57.509Z,17.42
2018-12-22T11:07:30.898Z,18.73
2018-12-22T11:10:06.366Z,15.70
2018-12-22T11:12:40.066Z,19.00
2018-12-22T11:15:13.669Z,21.73
2018-12-22T11:17:47.249Z,20.25
2018-12-22T11:20:20.936Z,25.60
2018-12-22T11:22:54.379Z,26.62
2018-12-22T11:25:27.780Z,24.47
2018-12-22T11:28:01.331Z,22.60
2018-12-22T11:30:36.876Z,21.75
2018-12-22T11:33:10.294Z,22.17
2018-12-22T11:35:43.722Z,21.12
2018-12-22T11:38:17.267Z,15.88
2018-12-22T11:40:50.712Z,19.40
2018-12-22T11:43:25.610Z,15.38
2018-12-22T11:45:59.246Z,17.57
2018-12-22T11:48:41.754Z,16.15
2018-12-22T11:51:16.582Z,15.03
2018-12-22T11:53:50.253Z,14.68
2018-12-22T11:56:23.686Z,16.20
2018-12-22T11:58:57.358Z,18.00
2018-12-22T12:01:30.900Z,15.75
2018-12-22T12:04:04.317Z,18.23
2018-12-22T12:06:37.846Z,18.17
2018-12-22T12:09:11.669Z,16.87
2018-12-22T12:11:46.109Z,19.45
2018-12-22T12:14:19.630Z,19.25
2018-12-22T12:17:50.594Z,16.50
2018-12-22T12:20:24.493Z,18.20
2018-12-22T12:22:57.920Z,21.42
2018-12-22T12:25:31.548Z,19.40
2018-12-22T12:28:05.158Z,16.60
2018-12-22T12:30:38.724Z,20.77
2018-12-22T12:33:12.162Z,21.48
2018-12-22T12:35:45.934Z,19.52
2018-12-22T12:38:19.223Z,22.25
2018-12-22T12:40:52.843Z,16.97
2018-12-22T12:43:26.628Z,21.60
2018-12-22T12:46:01.022Z,24.32
2018-12-22T12:48:34.483Z,20.17
2018-12-22T12:51:07.815Z,20.88
2018-12-22T12:53:41.382Z,22.10
2018-12-22T12:56:15.238Z,20.05
2018-12-22T12:58:50.012Z,19.35
2018-12-22T13:01:25.389Z,18.23
2018-12-22T13:03:58.863Z,19.07
2018-12-22T13:06:32.493Z,22.73
2018-12-22T13:09:07.985Z,25.25
2018-12-22T13:11:41.619Z,20.52
2018-12-22T13:14:18.021Z,19.80
2018-12-22T13:16:51.522Z,21.55
2018-12-22T13:19:25.193Z,28.30
2018-12-22T13:21:58.867Z,22.17
2018-12-22T13:24:32.455Z,21.93
2018-12-22T13:27:06.164Z,24.70
2018-12-22T13:29:39.620Z,24.75
2018-12-22T13:32:13.225Z,22.65
2018-12-22T13:34:47.453Z,25.25
2018-12-22T13:37:21.124Z,20.75
2018-12-22T13:39:54.638Z,24.77
2018-12-22T13:42:28.154Z,21.95
2018-12-22T13:45:01.637Z,22.13
2018-12-22T13:47:35.030Z,25.00
2018-12-22T13:50:08.687Z,23.77
2018-12-22T13:52:42.951Z,28.77
2018-12-22T13:55:16.651Z,39.73
2018-12-22T13:57:50.219Z,27.17
2018-12-22T14:00:24.433Z,25.65
2018-12-22T14:02:59.097Z,24.60
2018-12-22T14:05:33.325Z,28.57
2018-12-22T14:08:07.011Z,33.78
2018-12-22T14:10:40.712Z,28.45
2018-12-22T14:13:14.981Z,24.95
2018-12-22T14:15:54.771Z,28.90
2018-12-22T14:18:37.302Z,31.33
2018-12-22T14:21:11.046Z,27.93
2018-12-22T14:23:56.130Z,24.02
2018-12-22T14:26:29.717Z,27.82
2018-12-22T14:29:03.565Z,28.92
2018-12-22T14:31:37.275Z,27.52
2018-12-22T14:34:14.772Z,24.60
2018-12-22T14:36:48.332Z,23.98
2018-12-22T14:39:22.614Z,23.07
2018-12-22T14:41:57.553Z,28.20
2018-12-22T14:44:31.315Z,29.70
2018-12-22T14:47:04.750Z,24.92
2018-12-22T14:49:38.419Z,26.60
2018-12-22T14:52:12.050Z,28.98
2018-12-22T14:54:45.594Z,24.45
2018-12-22T14:57:19.734Z,25.82
2018-12-22T14:59:54.125Z,30.65
2018-12-22T15:03:30.764Z,33.38
2018-12-22T15:06:04.550Z,37.67
2018-12-22T15:08:38.041Z,31.37
2018-12-22T15:11:11.641Z,31.10
2018-12-22T15:13:45.169Z,33.38
2018-12-22T15:16:18.889Z,29.72
2018-12-22T15:18:52.593Z,34.78
2018-12-22T15:21:26.248Z,32.45
2018-12-22T15:24:00.262Z,36.05
2018-12-22T15:26:33.977Z,31.52
2018-12-22T15:29:08.384Z,30.23
2018-12-22T15:31:41.793Z,33.55
2018-12-22T15:34:15.291Z,39.33
2018-12-22T15:36:48.976Z,33.40
2018-12-22T15:39:22.532Z,31.60
2018-12-22T15:41:55.926Z,29.57
2018-12-22T15:44:29.483Z,30.50
2018-12-22T15:47:03.075Z,28.70
2018-12-22T15:49:36.386Z,24.52
2018-12-22T15:52:09.973Z,25.27
2018-12-22T15:54:43.483Z,23.55
2018-12-22T15:57:17.113Z,19.32
2018-12-22T15:59:51.753Z,19.42
2018-12-22T16:02:25.210Z,19.20
2018-12-22T16:04:58.570Z,18.48
2018-12-22T16:07:32.026Z,20.62
2018-12-22T16:10:08.845Z,17.85
2018-12-22T16:12:42.302Z,17.95
2018-12-22T16:15:17.881Z,19.20
2018-12-22T16:17:51.465Z,17.70
2018-12-22T16:20:24.918Z,16.95
2018-12-22T16:23:01.247Z,18.37
2018-12-22T16:25:34.886Z,15.32
2018-12-22T16:28:14.461Z,14.40
2018-12-22T16:30:52.940Z,13.70
2018-12-22T16:33:26.548Z,13.40
2018-12-22T16:36:00.205Z,11.83
2018-12-22T16:38:33.803Z,13.10
2018-12-22T16:41:07.400Z,15.15
2018-12-22T16:43:41.357Z,17.02
2018-12-22T16:46:14.857Z,13.75
2018-12-22T16:48:48.306Z,11.30
2018-12-22T16:51:21.882Z,13.00
2018-12-22T16:53:55.373Z,14.38
2018-12-22T16:56:28.891Z,14.63
2018-12-22T16:59:02.651Z,13.50
2018-12-22T17:01:46.075Z,14.28
2018-12-22T17:04:19.438Z,13.95
2018-12-22T17:06:53.025Z,14.95
2018-12-22T17:09:26.533Z,15.93
2018-12-22T17:12:00.149Z,15.10
2018-12-22T17:14:33.642Z,13.10
2018-12-22T17:17:07.463Z,16.50
2018-12-22T17:19:41.134Z,14.35
2018-12-22T17:22:19.058Z,15.48
2018-12-22T17:25:14.239Z,19.45
2018-12-22T17:27:47.885Z,17.00
2018-12-22T17:30:21.270Z,18.15
2018-12-22T17:32:54.871Z,16.65
2018-12-22T17:35:28.509Z,15.32
2018-12-22T17:38:02.170Z,15.48
2018-12-22T17:40:35.802Z,16.93
2018-12-22T17:43:09.213Z,12.70
2018-12-22T17:45:42.519Z,14.75
2018-12-22T17:48:16.140Z,12.13
2018-12-22T17:50:49.677Z,13.93
2018-12-22T17:53:23.402Z,15.15
2018-12-22T17:55:57.098Z,13.55
2018-12-22T17:58:30.366Z,14.33
2018-12-22T18:01:03.979Z,15.05
2018-12-22T18:03:37.761Z,14.65
2018-12-22T18:06:11.446Z,17.30
2018-12-22T18:08:44.898Z,15.05
2018-12-22T18:11:18.394Z,16.62
2018-12-22T18:13:51.818Z,18.67
2018-12-22T18:16:25.321Z,16.70
2018-12-22T18:18:58.729Z,20.77
2018-12-22T18:21:37.144Z,15.50
2018-12-22T18:24:10.622Z,18.52
2018-12-22T18:26:44.480Z,17.25
2018-12-22T18:29:18.078Z,18.73
2018-12-22T18:35:22.553Z,19.25
2018-12-22T18:37:56.267Z,24.72
2018-12-22T18:40:29.981Z,22.27
2018-12-22T18:43:03.431Z,22.82
2018-12-22T18:45:36.985Z,25.70
2018-12-22T18:48:11.396Z,29.05
2018-12-22T18:50:51.816Z,24.82
2018-12-22T18:53:25.390Z,31.17
2018-12-22T18:55:59.144Z,28.02
2018-12-22T18:58:36.616Z,26.55
2018-12-22T19:01:10.940Z,24.85
2018-12-22T19:03:44.870Z,26.40
2018-12-22T19:06:18.856Z,25.08
2018-12-22T19:08:55.016Z,29.10
2018-12-22T19:11:28.650Z,27.60
2018-12-22T19:14:02.461Z,30.02
2018-12-22T19:16:36.152Z,29.25
2018-12-22T19:19:10.153Z,24.02
2018-12-22T19:21:43.664Z,27.52
2018-12-22T19:24:17.579Z,24.72
2018-12-22T19:26:51.441Z,25.60
2018-12-22T19:29:25.026Z,24.55
2018-12-22T19:31:58.915Z,22.35
2018-12-22T19:34:32.542Z,20.65
2018-12-22T19:37:06.511Z,22.87
2018-12-22T19:39:40.209Z,18.52
2018-12-22T19:42:14.170Z,16.45
2018-12-22T19:44:47.986Z,15.25
2018-12-22T19:47:21.597Z,17.17
2018-12-22T19:49:56.913Z,16.70
2018-12-22T19:52:30.759Z,15.93
2018-12-22T19:55:04.677Z,16.85
2018-12-22T19:57:38.529Z,13.30
2018-12-22T20:00:12.481Z,13.83
2018-12-22T20:02:46.174Z,15.05
2018-12-22T20:05:23.003Z,14.93
2018-12-22T20:07:56.695Z,14.05
2018-12-22T20:10:31.007Z,14.93
2018-12-22T20:13:04.712Z,10.82
2018-12-22T20:15:38.798Z,14.53
2018-12-22T20:18:12.531Z,14.20
2018-12-22T20:20:46.132Z,16.62
2018-12-22T20:23:19.806Z,12.60
2018-12-22T20:25:53.773Z,16.32
2018-12-22T20:28:27.790Z,14.35
2018-12-22T20:31:01.307Z,15.45
2018-12-22T20:33:34.968Z,18.32
2018-12-22T20:36:08.602Z,18.20
2018-12-22T20:38:43.451Z,15.85
2018-12-22T20:41:17.299Z,21.73
2018-12-22T20:43:51.187Z,23.40
2018-12-22T20:46:25.119Z,22.00
2018-12-22T20:48:58.783Z,20.57
2018-12-22T20:51:33.861Z,22.17
2018-12-22T20:54:07.840Z,18.90
2018-12-22T20:56:41.644Z,23.20
2018-12-22T20:59:15.316Z,22.10
2018-12-22T21:01:48.946Z,20.32
2018-12-22T21:04:22.983Z,26.48
2018-12-22T21:06:56.703Z,25.37
2018-12-22T21:09:30.750Z,23.95
2018-12-22T21:12:04.748Z,24.35
2018-12-22T21:14:38.562Z,24.57
2018-12-22T21:17:12.218Z,24.15
2018-12-22T21:19:46.131Z,24.85
2018-12-22T21:22:19.965Z,30.85
2018-12-22T21:24:53.785Z,25.12
2018-12-22T21:27:27.620Z,25.45
2018-12-22T21:30:01.316Z,21.37
2018-12-22T21:32:34.724Z,18.92
2018-12-22T21:35:08.262Z,20.97
2018-12-22T21:37:41.794Z,19.65
2018-12-22T21:40:15.528Z,21.52
2018-12-22T21:42:49.107Z,24.15
2018-12-22T21:45:22.624Z,22.82
2018-12-22T21:47:56.071Z,18.12
2018-12-22T21:51:00.443Z,25.62
2018-12-22T21:53:33.793Z,16.87
2018-12-22T21:56:07.277Z,20.55
2018-12-22T21:58:40.861Z,19.92
2018-12-22T22:01:14.511Z,18.05
2018-12-22T22:03:47.886Z,16.95
2018-12-22T22:06:21.255Z,15.48
2018-12-22T22:08:54.615Z,18.02
2018-12-22T22:11:28.192Z,19.25
2018-12-22T22:14:01.606Z,19.60
2018-12-22T22:16:35.765Z,24.30
2018-12-22T22:19:09.239Z,17.60
2018-12-22T22:21:42.670Z,18.23
2018-12-22T22:24:15.902Z,20.55
2018-12-22T22:26:50.759Z,23.38
2018-12-22T22:29:24.907Z,19.90
2018-12-22T22:31:58.461Z,18.90
2018-12-22T22:34:31.813Z,18.52
2018-12-22T22:37:05.420Z,18.52
2018-12-22T22:39:39.034Z,20.37
2018-12-22T22:42:12.622Z,19.77
2018-12-22T22:44:46.075Z,20.68
2018-12-22T22:47:21.074Z,21.40
2018-12-22T22:49:54.522Z,19.02
2018-12-22T22:52:28.071Z,18.45
2018-12-22T22:55:01.400Z,24.50
2018-12-22T22:57:34.988Z,19.07
2018-12-22T23:00:13.596Z,22.90
2018-12-22T23:02:47.402Z,21.20
2018-12-22T23:05:20.862Z,22.58
2018-12-22T23:07:54.261Z,25.32
2018-12-22T23:10:27.972Z,26.52
2018-12-22T23:13:01.554Z,28.32
2018-12-22T23:15:35.216Z,23.22
2018-12-22T23:18:08.647Z,26.75
2018-12-22T23:20:42.142Z,25.25
2018-12-22T23:23:15.635Z,25.12
2018-12-22T23:25:49.181Z,24.60
2018-12-22T23:28:23.718Z,27.42
2018-12-22T23:30:57.229Z,26.55
2018-12-22T23:33:30.868Z,25.77
2018-12-22T23:36:04.215Z,23.32
2018-12-22T23:38:37.764Z,27.32
2018-12-22T23:41:11.274Z,26.00
2018-12-22T23:43:44.725Z,25.95
2018-12-22T23:46:18.085Z,24.85
2018-12-22T23:48:51.730Z,25.32
2018-12-22T23:51:25.280Z,25.30
2018-12-22T23:53:58.990Z,28.02
2018-12-22T23:56:32.443Z,27.70
2018-12-22T23:59:06.002Z,28.25
